sensor_id;sensor_type;location;lat;lon;timestamp;P1;durP1;ratioP1;P2;durP2;ratioP2
43986;SDS011;29650;47.378;8.300;2023-11-18T00:00:15;21.10;;;12.10;;
43986;SDS011;29650;47.378;8.300;2023-11-18T00:02:42;22.92;;;10.35;;
43986;SDS011;29650;47.378;8.300;2023-11-18T00:05:10;7.68;;;3.70;;
43986;SDS011;29650;47.378;8.300;2023-11-18T00:07:37;4.72;;;2.40;;
43986;SDS011;29650;47.378;8.300;2023-11-18T00:10:04;2.53;;;1.67;;
43986;SDS011;29650;47.378;8.300;2023-11-18T00:12:33;22.20;;;12.32;;
43986;SDS011;29650;47.378;8.300;2023-11-18T00:15:01;2.65;;;1.67;;
43986;SDS011;29650;47.378;8.300;2023-11-18T00:17:30;13.53;;;6.60;;
43986;SDS011;29650;47.378;8.300;2023-11-18T00:19:58;8.73;;;3.42;;
43986;SDS011;29650;47.378;8.300;2023-11-18T00:22:25;8.02;;;2.00;;
43986;SDS011;29650;47.378;8.300;2023-11-18T00:24:53;6.13;;;1.40;;
43986;SDS011;29650;47.378;8.300;2023-11-18T00:27:20;4.13;;;2.53;;
43986;SDS011;29650;47.378;8.300;2023-11-18T00:29:50;7.18;;;3.08;;
43986;SDS011;29650;47.378;8.300;2023-11-18T00:32:18;4.32;;;2.65;;
43986;SDS011;29650;47.378;8.300;2023-11-18T00:34:47;9.73;;;4.50;;
43986;SDS011;29650;47.378;8.300;2023-11-18T00:37:14;19.30;;;12.50;;
43986;SDS011;29650;47.378;8.300;2023-11-18T00:39:41;20.33;;;13.30;;
43986;SDS011;29650;47.378;8.300;2023-11-18T00:42:07;23.52;;;10.10;;
43986;SDS011;29650;47.378;8.300;2023-11-18T00:44:35;4.30;;;2.88;;
43986;SDS011;29650;47.378;8.300;2023-11-18T00:47:02;21.40;;;10.73;;
43986;SDS011;29650;47.378;8.300;2023-11-18T00:49:29;29.35;;;16.17;;
43986;SDS011;29650;47.378;8.300;2023-11-18T00:51:57;36.10;;;17.55;;
43986;SDS011;29650;47.378;8.300;2023-11-18T00:54:24;19.93;;;8.47;;
43986;SDS011;29650;47.378;8.300;2023-11-18T00:56:52;5.03;;;2.80;;
43986;SDS011;29650;47.378;8.300;2023-11-18T00:59:19;5.15;;;2.10;;
43986;SDS011;29650;47.378;8.300;2023-11-18T01:01:46;2.45;;;1.58;;
43986;SDS011;29650;47.378;8.300;2023-11-18T01:04:14;9.45;;;6.40;;
43986;SDS011;29650;47.378;8.300;2023-11-18T01:06:42;25.35;;;12.57;;
43986;SDS011;29650;47.378;8.300;2023-11-18T01:09:10;6.22;;;2.90;;
43986;SDS011;29650;47.378;8.300;2023-11-18T01:11:37;1.53;;;1.17;;
43986;SDS011;29650;47.378;8.300;2023-11-18T01:14:04;5.78;;;1.55;;
43986;SDS011;29650;47.378;8.300;2023-11-18T01:16:32;1.42;;;1.10;;
43986;SDS011;29650;47.378;8.300;2023-11-18T01:19:00;19.70;;;11.20;;
43986;SDS011;29650;47.378;8.300;2023-11-18T01:21:27;33.47;;;19.00;;
43986;SDS011;29650;47.378;8.300;2023-11-18T01:23:54;9.80;;;4.95;;
43986;SDS011;29650;47.378;8.300;2023-11-18T01:26:23;5.00;;;3.03;;
43986;SDS011;29650;47.378;8.300;2023-11-18T01:28:50;2.95;;;1.90;;
43986;SDS011;29650;47.378;8.300;2023-11-18T01:31:17;7.40;;;2.97;;
43986;SDS011;29650;47.378;8.300;2023-11-18T01:33:44;21.05;;;10.07;;
43986;SDS011;29650;47.378;8.300;2023-11-18T01:36:12;4.65;;;2.63;;
43986;SDS011;29650;47.378;8.300;2023-11-18T01:38:39;10.88;;;2.17;;
43986;SDS011;29650;47.378;8.300;2023-11-18T01:41:06;2.15;;;1.50;;
43986;SDS011;29650;47.378;8.300;2023-11-18T01:43:35;2.05;;;1.48;;
43986;SDS011;29650;47.378;8.300;2023-11-18T01:46:05;3.15;;;1.30;;
43986;SDS011;29650;47.378;8.300;2023-11-18T01:48:38;5.38;;;1.42;;
43986;SDS011;29650;47.378;8.300;2023-11-18T01:51:07;1.75;;;1.23;;
43986;SDS011;29650;47.378;8.300;2023-11-18T01:53:35;1.73;;;1.48;;
43986;SDS011;29650;47.378;8.300;2023-11-18T01:56:05;2.50;;;1.40;;
43986;SDS011;29650;47.378;8.300;2023-11-18T01:58:33;2.60;;;1.40;;
43986;SDS011;29650;47.378;8.300;2023-11-18T02:01:02;1.48;;;1.13;;
43986;SDS011;29650;47.378;8.300;2023-11-18T02:03:33;2.50;;;1.45;;
43986;SDS011;29650;47.378;8.300;2023-11-18T02:06:00;4.32;;;1.30;;
43986;SDS011;29650;47.378;8.300;2023-11-18T02:08:29;2.58;;;1.35;;
43986;SDS011;29650;47.378;8.300;2023-11-18T02:10:58;2.47;;;1.20;;
43986;SDS011;29650;47.378;8.300;2023-11-18T02:13:38;1.85;;;1.30;;
43986;SDS011;29650;47.378;8.300;2023-11-18T02:16:07;1.67;;;1.10;;
43986;SDS011;29650;47.378;8.300;2023-11-18T02:18:35;3.00;;;1.30;;
43986;SDS011;29650;47.378;8.300;2023-11-18T02:21:05;1.45;;;1.33;;
43986;SDS011;29650;47.378;8.300;2023-11-18T02:23:33;2.67;;;1.40;;
43986;SDS011;29650;47.378;8.300;2023-11-18T02:26:04;4.45;;;1.58;;
43986;SDS011;29650;47.378;8.300;2023-11-18T02:28:31;2.63;;;1.60;;
43986;SDS011;29650;47.378;8.300;2023-11-18T02:33:31;2.25;;;1.40;;
43986;SDS011;29650;47.378;8.300;2023-11-18T02:36:06;1.83;;;1.40;;
43986;SDS011;29650;47.378;8.300;2023-11-18T02:38:46;2.90;;;1.60;;
43986;SDS011;29650;47.378;8.300;2023-11-18T02:41:17;3.40;;;1.67;;
43986;SDS011;29650;47.378;8.300;2023-11-18T02:43:46;3.55;;;1.70;;
43986;SDS011;29650;47.378;8.300;2023-11-18T02:46:15;5.25;;;1.65;;
43986;SDS011;29650;47.378;8.300;2023-11-18T02:48:43;4.30;;;1.75;;
43986;SDS011;29650;47.378;8.300;2023-11-18T02:51:10;2.60;;;1.45;;
43986;SDS011;29650;47.378;8.300;2023-11-18T02:53:37;2.15;;;1.65;;
43986;SDS011;29650;47.378;8.300;2023-11-18T02:56:07;1.42;;;1.23;;
43986;SDS011;29650;47.378;8.300;2023-11-18T02:58:36;2.15;;;1.40;;
43986;SDS011;29650;47.378;8.300;2023-11-18T03:01:03;1.33;;;1.23;;
43986;SDS011;29650;47.378;8.300;2023-11-18T03:03:30;1.75;;;1.50;;
43986;SDS011;29650;47.378;8.300;2023-11-18T03:05:57;3.55;;;1.95;;
43986;SDS011;29650;47.378;8.300;2023-11-18T03:08:25;2.55;;;1.60;;
43986;SDS011;29650;47.378;8.300;2023-11-18T03:10:54;3.47;;;1.70;;
43986;SDS011;29650;47.378;8.300;2023-11-18T03:13:23;4.63;;;1.77;;
43986;SDS011;29650;47.378;8.300;2023-11-18T03:15:51;2.03;;;1.80;;
43986;SDS011;29650;47.378;8.300;2023-11-18T03:18:19;3.13;;;1.90;;
43986;SDS011;29650;47.378;8.300;2023-11-18T03:20:46;2.60;;;1.75;;
43986;SDS011;29650;47.378;8.300;2023-11-18T03:23:14;2.17;;;1.50;;
43986;SDS011;29650;47.378;8.300;2023-11-18T03:25:41;3.20;;;1.55;;
43986;SDS011;29650;47.378;8.300;2023-11-18T03:28:08;1.88;;;1.40;;
43986;SDS011;29650;47.378;8.300;2023-11-18T03:30:35;1.83;;;1.65;;
43986;SDS011;29650;47.378;8.300;2023-11-18T03:33:04;3.00;;;1.60;;
43986;SDS011;29650;47.378;8.300;2023-11-18T03:35:36;3.88;;;1.60;;
43986;SDS011;29650;47.378;8.300;2023-11-18T03:38:03;4.72;;;1.90;;
43986;SDS011;29650;47.378;8.300;2023-11-18T03:40:30;2.17;;;1.52;;
43986;SDS011;29650;47.378;8.300;2023-11-18T03:43:00;2.45;;;1.65;;
43986;SDS011;29650;47.378;8.300;2023-11-18T03:45:28;4.47;;;2.20;;
43986;SDS011;29650;47.378;8.300;2023-11-18T03:47:55;3.17;;;2.20;;
43986;SDS011;29650;47.378;8.300;2023-11-18T03:50:24;2.33;;;1.85;;
43986;SDS011;29650;47.378;8.300;2023-11-18T03:52:51;3.40;;;2.00;;
43986;SDS011;29650;47.378;8.300;2023-11-18T03:55:18;34.97;;;3.95;;
43986;SDS011;29650;47.378;8.300;2023-11-18T03:57:46;3.03;;;2.72;;
43986;SDS011;29650;47.378;8.300;2023-11-18T04:00:15;4.13;;;2.85;;
43986;SDS011;29650;47.378;8.300;2023-11-18T04:02:42;3.65;;;2.20;;
43986;SDS011;29650;47.378;8.300;2023-11-18T04:05:11;4.22;;;2.33;;
43986;SDS011;29650;47.378;8.300;2023-11-18T04:07:39;2.97;;;2.58;;
43986;SDS011;29650;47.378;8.300;2023-11-18T04:10:07;5.47;;;2.10;;
43986;SDS011;29650;47.378;8.300;2023-11-18T04:12:35;4.20;;;2.80;;
43986;SDS011;29650;47.378;8.300;2023-11-18T04:15:03;3.92;;;2.60;;
43986;SDS011;29650;47.378;8.300;2023-11-18T04:17:31;3.00;;;2.70;;
43986;SDS011;29650;47.378;8.300;2023-11-18T04:19:58;19.73;;;3.08;;
43986;SDS011;29650;47.378;8.300;2023-11-18T04:22:29;55.88;;;3.88;;
43986;SDS011;29650;47.378;8.300;2023-11-18T04:24:58;58.85;;;4.55;;
43986;SDS011;29650;47.378;8.300;2023-11-18T04:27:25;88.70;;;4.75;;
43986;SDS011;29650;47.378;8.300;2023-11-18T04:29:52;61.42;;;4.35;;
43986;SDS011;29650;47.378;8.300;2023-11-18T04:32:19;103.22;;;6.03;;
43986;SDS011;29650;47.378;8.300;2023-11-18T04:37:16;226.13;;;9.13;;
43986;SDS011;29650;47.378;8.300;2023-11-18T04:39:43;296.17;;;11.88;;
43986;SDS011;29650;47.378;8.300;2023-11-18T04:42:13;201.93;;;10.40;;
43986;SDS011;29650;47.378;8.300;2023-11-18T04:44:40;446.15;;;16.60;;
43986;SDS011;29650;47.378;8.300;2023-11-18T04:47:07;441.33;;;17.20;;
43986;SDS011;29650;47.378;8.300;2023-11-18T04:49:35;485.95;;;18.42;;
43986;SDS011;29650;47.378;8.300;2023-11-18T04:52:02;317.40;;;13.98;;
43986;SDS011;29650;47.378;8.300;2023-11-18T04:54:30;47.53;;;5.13;;
43986;SDS011;29650;47.378;8.300;2023-11-18T04:56:57;220.60;;;9.82;;
43986;SDS011;29650;47.378;8.300;2023-11-18T04:59:26;193.57;;;8.82;;
43986;SDS011;29650;47.378;8.300;2023-11-18T05:01:53;173.48;;;8.05;;
43986;SDS011;29650;47.378;8.300;2023-11-18T05:04:20;124.93;;;7.82;;
43986;SDS011;29650;47.378;8.300;2023-11-18T05:06:47;251.05;;;10.75;;
43986;SDS011;29650;47.378;8.300;2023-11-18T05:09:14;145.57;;;8.75;;
43986;SDS011;29650;47.378;8.300;2023-11-18T05:14:10;120.88;;;6.68;;
43986;SDS011;29650;47.378;8.300;2023-11-18T05:16:39;130.93;;;8.20;;
43986;SDS011;29650;47.378;8.300;2023-11-18T05:19:07;66.82;;;6.00;;
43986;SDS011;29650;47.378;8.300;2023-11-18T05:21:34;90.90;;;6.70;;
43986;SDS011;29650;47.378;8.300;2023-11-18T05:24:01;56.75;;;5.95;;
43986;SDS011;29650;47.378;8.300;2023-11-18T05:26:28;62.53;;;5.43;;
43986;SDS011;29650;47.378;8.300;2023-11-18T05:28:55;56.90;;;5.25;;
43986;SDS011;29650;47.378;8.300;2023-11-18T05:31:22;37.13;;;4.88;;
43986;SDS011;29650;47.378;8.300;2023-11-18T05:33:50;20.60;;;5.20;;
43986;SDS011;29650;47.378;8.300;2023-11-18T05:36:20;15.50;;;3.70;;
43986;SDS011;29650;47.378;8.300;2023-11-18T05:38:52;5.57;;;3.58;;
43986;SDS011;29650;47.378;8.300;2023-11-18T05:41:20;5.20;;;3.50;;
43986;SDS011;29650;47.378;8.300;2023-11-18T05:43:53;5.22;;;3.08;;
43986;SDS011;29650;47.378;8.300;2023-11-18T05:46:22;5.65;;;3.40;;
43986;SDS011;29650;47.378;8.300;2023-11-18T05:51:20;11.55;;;3.65;;
43986;SDS011;29650;47.378;8.300;2023-11-18T05:53:48;16.07;;;5.00;;
43986;SDS011;29650;47.378;8.300;2023-11-18T05:56:16;5.50;;;3.65;;
43986;SDS011;29650;47.378;8.300;2023-11-18T05:58:43;13.57;;;3.70;;
43986;SDS011;29650;47.378;8.300;2023-11-18T06:01:10;4.70;;;2.92;;
43986;SDS011;29650;47.378;8.300;2023-11-18T06:03:38;36.00;;;3.78;;
43986;SDS011;29650;47.378;8.300;2023-11-18T06:06:07;43.42;;;5.00;;
43986;SDS011;29650;47.378;8.300;2023-11-18T06:08:36;135.05;;;7.35;;
43986;SDS011;29650;47.378;8.300;2023-11-18T06:11:06;190.48;;;9.75;;
43986;SDS011;29650;47.378;8.300;2023-11-18T06:13:39;336.13;;;14.13;;
43986;SDS011;29650;47.378;8.300;2023-11-18T06:16:12;208.77;;;9.60;;
43986;SDS011;29650;47.378;8.300;2023-11-18T06:18:41;149.52;;;7.43;;
43986;SDS011;29650;47.378;8.300;2023-11-18T06:21:14;67.43;;;5.72;;
43986;SDS011;29650;47.378;8.300;2023-11-18T06:23:42;48.70;;;5.53;;
43986;SDS011;29650;47.378;8.300;2023-11-18T06:26:11;16.58;;;4.90;;
43986;SDS011;29650;47.378;8.300;2023-11-18T06:28:38;10.32;;;6.35;;
43986;SDS011;29650;47.378;8.300;2023-11-18T06:31:06;10.18;;;7.63;;
43986;SDS011;29650;47.378;8.300;2023-11-18T06:33:37;9.85;;;6.50;;
43986;SDS011;29650;47.378;8.300;2023-11-18T06:36:08;12.68;;;8.82;;
43986;SDS011;29650;47.378;8.300;2023-11-18T06:38:37;12.30;;;8.15;;
43986;SDS011;29650;47.378;8.300;2023-11-18T06:41:05;12.98;;;9.13;;
43986;SDS011;29650;47.378;8.300;2023-11-18T06:43:34;11.18;;;6.72;;
43986;SDS011;29650;47.378;8.300;2023-11-18T06:46:16;24.45;;;5.75;;
43986;SDS011;29650;47.378;8.300;2023-11-18T06:48:46;11.07;;;5.55;;
43986;SDS011;29650;47.378;8.300;2023-11-18T06:51:14;15.03;;;5.60;;
43986;SDS011;29650;47.378;8.300;2023-11-18T06:53:43;32.42;;;6.43;;
43986;SDS011;29650;47.378;8.300;2023-11-18T06:56:10;14.95;;;6.10;;
43986;SDS011;29650;47.378;8.300;2023-11-18T06:58:38;68.18;;;7.40;;
43986;SDS011;29650;47.378;8.300;2023-11-18T07:01:05;80.95;;;8.85;;
43986;SDS011;29650;47.378;8.300;2023-11-18T07:03:33;52.63;;;6.85;;
43986;SDS011;29650;47.378;8.300;2023-11-18T07:06:01;53.28;;;6.72;;
43986;SDS011;29650;47.378;8.300;2023-11-18T07:08:30;33.80;;;7.78;;
43986;SDS011;29650;47.378;8.300;2023-11-18T07:10:59;128.32;;;9.50;;
43986;SDS011;29650;47.378;8.300;2023-11-18T07:13:26;89.70;;;9.45;;
43986;SDS011;29650;47.378;8.300;2023-11-18T07:15:53;31.23;;;8.52;;
43986;SDS011;29650;47.378;8.300;2023-11-18T07:18:21;67.13;;;8.32;;
43986;SDS011;29650;47.378;8.300;2023-11-18T07:20:48;23.50;;;7.95;;
43986;SDS011;29650;47.378;8.300;2023-11-18T07:23:17;83.03;;;8.73;;
43986;SDS011;29650;47.378;8.300;2023-11-18T07:25:44;63.03;;;8.77;;
43986;SDS011;29650;47.378;8.300;2023-11-18T07:28:13;18.05;;;6.97;;
43986;SDS011;29650;47.378;8.300;2023-11-18T07:30:42;90.63;;;7.65;;
43986;SDS011;29650;47.378;8.300;2023-11-18T07:33:12;92.80;;;8.40;;
43986;SDS011;29650;47.378;8.300;2023-11-18T07:35:39;83.93;;;8.80;;
43986;SDS011;29650;47.378;8.300;2023-11-18T07:38:07;41.42;;;6.60;;
43986;SDS011;29650;47.378;8.300;2023-11-18T07:40:34;160.32;;;9.90;;
43986;SDS011;29650;47.378;8.300;2023-11-18T07:43:02;135.70;;;9.70;;
43986;SDS011;29650;47.378;8.300;2023-11-18T07:48:04;227.82;;;16.48;;
43986;SDS011;29650;47.378;8.300;2023-11-18T07:50:32;70.88;;;8.57;;
43986;SDS011;29650;47.378;8.300;2023-11-18T07:53:00;73.10;;;7.95;;
43986;SDS011;29650;47.378;8.300;2023-11-18T07:55:27;38.55;;;6.75;;
43986;SDS011;29650;47.378;8.300;2023-11-18T07:57:54;54.53;;;7.97;;
43986;SDS011;29650;47.378;8.300;2023-11-18T08:00:21;11.02;;;7.00;;
43986;SDS011;29650;47.378;8.300;2023-11-18T08:02:50;13.48;;;5.20;;
43986;SDS011;29650;47.378;8.300;2023-11-18T08:05:19;133.98;;;9.95;;
43986;SDS011;29650;47.378;8.300;2023-11-18T08:07:48;75.13;;;9.18;;
43986;SDS011;29650;47.378;8.300;2023-11-18T08:10:16;65.15;;;10.25;;
43986;SDS011;29650;47.378;8.300;2023-11-18T08:12:44;40.75;;;13.43;;
43986;SDS011;29650;47.378;8.300;2023-11-18T08:15:11;30.13;;;15.02;;
43986;SDS011;29650;47.378;8.300;2023-11-18T08:17:39;43.63;;;14.63;;
43986;SDS011;29650;47.378;8.300;2023-11-18T08:20:08;28.40;;;11.80;;
43986;SDS011;29650;47.378;8.300;2023-11-18T08:22:39;48.42;;;12.27;;
43986;SDS011;29650;47.378;8.300;2023-11-18T08:25:07;14.57;;;8.80;;
43986;SDS011;29650;47.378;8.300;2023-11-18T08:27:34;22.80;;;10.05;;
43986;SDS011;29650;47.378;8.300;2023-11-18T08:30:01;11.90;;;9.10;;
43986;SDS011;29650;47.378;8.300;2023-11-18T08:32:31;64.75;;;12.40;;
43986;SDS011;29650;47.378;8.300;2023-11-18T08:34:58;35.90;;;8.93;;
43986;SDS011;29650;47.378;8.300;2023-11-18T08:37:26;11.20;;;7.65;;
43986;SDS011;29650;47.378;8.300;2023-11-18T08:39:54;28.05;;;9.10;;
43986;SDS011;29650;47.378;8.300;2023-11-18T08:42:21;11.45;;;7.95;;
43986;SDS011;29650;47.378;8.300;2023-11-18T08:44:49;151.77;;;17.42;;
43986;SDS011;29650;47.378;8.300;2023-11-18T08:47:16;36.38;;;7.68;;
43986;SDS011;29650;47.378;8.300;2023-11-18T08:49:44;7.25;;;6.35;;
43986;SDS011;29650;47.378;8.300;2023-11-18T08:52:12;46.60;;;8.82;;
43986;SDS011;29650;47.378;8.300;2023-11-18T08:54:40;41.28;;;7.80;;
43986;SDS011;29650;47.378;8.300;2023-11-18T08:57:28;6.90;;;5.68;;
43986;SDS011;29650;47.378;8.300;2023-11-18T09:00:13;20.73;;;5.97;;
43986;SDS011;29650;47.378;8.300;2023-11-18T09:03:02;28.10;;;6.53;;
43986;SDS011;29650;47.378;8.300;2023-11-18T09:05:31;13.13;;;5.53;;
43986;SDS011;29650;47.378;8.300;2023-11-18T09:08:01;23.88;;;7.10;;
43986;SDS011;29650;47.378;8.300;2023-11-18T09:10:32;13.85;;;6.38;;
43986;SDS011;29650;47.378;8.300;2023-11-18T09:12:59;8.80;;;5.50;;
43986;SDS011;29650;47.378;8.300;2023-11-18T09:15:28;11.48;;;6.07;;
43986;SDS011;29650;47.378;8.300;2023-11-18T09:17:56;6.53;;;5.43;;
43986;SDS011;29650;47.378;8.300;2023-11-18T09:20:23;6.03;;;5.43;;
43986;SDS011;29650;47.378;8.300;2023-11-18T09:22:50;20.20;;;5.97;;
43986;SDS011;29650;47.378;8.300;2023-11-18T09:25:20;8.80;;;5.53;;
43986;SDS011;29650;47.378;8.300;2023-11-18T09:27:49;11.48;;;5.75;;
43986;SDS011;29650;47.378;8.300;2023-11-18T09:30:16;6.83;;;5.27;;
43986;SDS011;29650;47.378;8.300;2023-11-18T09:32:43;7.55;;;6.68;;
43986;SDS011;29650;47.378;8.300;2023-11-18T09:35:12;6.18;;;5.40;;
43986;SDS011;29650;47.378;8.300;2023-11-18T09:37:40;6.65;;;5.43;;
43986;SDS011;29650;47.378;8.300;2023-11-18T09:40:08;5.90;;;5.30;;
43986;SDS011;29650;47.378;8.300;2023-11-18T09:42:39;6.03;;;5.28;;
43986;SDS011;29650;47.378;8.300;2023-11-18T09:45:10;7.20;;;5.45;;
43986;SDS011;29650;47.378;8.300;2023-11-18T09:47:42;7.00;;;5.65;;
43986;SDS011;29650;47.378;8.300;2023-11-18T09:50:13;8.10;;;6.22;;
43986;SDS011;29650;47.378;8.300;2023-11-18T09:52:47;6.63;;;5.63;;
43986;SDS011;29650;47.378;8.300;2023-11-18T09:55:20;7.10;;;5.03;;
43986;SDS011;29650;47.378;8.300;2023-11-18T09:57:54;5.88;;;5.30;;
43986;SDS011;29650;47.378;8.300;2023-11-18T10:00:30;5.18;;;4.68;;
43986;SDS011;29650;47.378;8.300;2023-11-18T10:02:58;6.25;;;5.35;;
43986;SDS011;29650;47.378;8.300;2023-11-18T10:05:27;6.45;;;5.28;;
43986;SDS011;29650;47.378;8.300;2023-11-18T10:07:55;6.25;;;5.65;;
43986;SDS011;29650;47.378;8.300;2023-11-18T10:10:23;6.00;;;5.40;;
43986;SDS011;29650;47.378;8.300;2023-11-18T10:12:55;5.65;;;5.05;;
43986;SDS011;29650;47.378;8.300;2023-11-18T10:15:24;7.03;;;5.30;;
43986;SDS011;29650;47.378;8.300;2023-11-18T10:17:53;6.28;;;5.07;;
43986;SDS011;29650;47.378;8.300;2023-11-18T10:20:42;5.43;;;4.88;;
43986;SDS011;29650;47.378;8.300;2023-11-18T10:23:11;5.07;;;4.57;;
43986;SDS011;29650;47.378;8.300;2023-11-18T10:25:44;5.85;;;5.25;;
43986;SDS011;29650;47.378;8.300;2023-11-18T10:30:52;4.55;;;4.15;;
43986;SDS011;29650;47.378;8.300;2023-11-18T10:33:21;3.83;;;3.53;;
43986;SDS011;29650;47.378;8.300;2023-11-18T10:35:51;5.43;;;4.47;;
43986;SDS011;29650;47.378;8.300;2023-11-18T10:38:20;5.28;;;4.78;;
43986;SDS011;29650;47.378;8.300;2023-11-18T10:40:52;7.05;;;5.70;;
43986;SDS011;29650;47.378;8.300;2023-11-18T10:43:20;10.52;;;9.30;;
43986;SDS011;29650;47.378;8.300;2023-11-18T10:48:17;11.82;;;8.93;;
43986;SDS011;29650;47.378;8.300;2023-11-18T10:50:47;8.85;;;7.65;;
43986;SDS011;29650;47.378;8.300;2023-11-18T10:53:16;9.13;;;8.15;;
43986;SDS011;29650;47.378;8.300;2023-11-18T10:55:44;9.95;;;7.90;;
43986;SDS011;29650;47.378;8.300;2023-11-18T10:58:11;10.13;;;8.73;;
43986;SDS011;29650;47.378;8.300;2023-11-18T11:00:46;8.50;;;7.25;;
43986;SDS011;29650;47.378;8.300;2023-11-18T11:03:15;11.45;;;8.43;;
43986;SDS011;29650;47.378;8.300;2023-11-18T11:05:43;9.55;;;7.00;;
43986;SDS011;29650;47.378;8.300;2023-11-18T11:08:13;8.00;;;6.38;;
43986;SDS011;29650;47.378;8.300;2023-11-18T11:10:41;9.02;;;7.10;;
43986;SDS011;29650;47.378;8.300;2023-11-18T11:13:09;10.48;;;8.68;;
43986;SDS011;29650;47.378;8.300;2023-11-18T11:15:40;9.60;;;7.88;;
43986;SDS011;29650;47.378;8.300;2023-11-18T11:18:11;12.48;;;7.68;;
43986;SDS011;29650;47.378;8.300;2023-11-18T11:20:50;9.02;;;7.55;;
43986;SDS011;29650;47.378;8.300;2023-11-18T11:23:33;8.82;;;6.57;;
43986;SDS011;29650;47.378;8.300;2023-11-18T11:26:13;8.50;;;6.75;;
43986;SDS011;29650;47.378;8.300;2023-11-18T11:28:58;9.35;;;7.85;;
43986;SDS011;29650;47.378;8.300;2023-11-18T11:31:35;8.65;;;7.75;;
43986;SDS011;29650;47.378;8.300;2023-11-18T11:34:05;8.38;;;7.55;;
43986;SDS011;29650;47.378;8.300;2023-11-18T11:36:37;11.25;;;8.52;;
43986;SDS011;29650;47.378;8.300;2023-11-18T11:39:09;9.95;;;7.95;;
43986;SDS011;29650;47.378;8.300;2023-11-18T11:41:41;9.07;;;8.02;;
43986;SDS011;29650;47.378;8.300;2023-11-18T11:44:11;8.57;;;7.68;;
43986;SDS011;29650;47.378;8.300;2023-11-18T11:46:40;8.73;;;7.83;;
43986;SDS011;29650;47.378;8.300;2023-11-18T11:49:08;10.00;;;8.93;;
43986;SDS011;29650;47.378;8.300;2023-11-18T11:51:46;9.63;;;8.32;;
43986;SDS011;29650;47.378;8.300;2023-11-18T11:54:23;10.23;;;8.93;;
43986;SDS011;29650;47.378;8.300;2023-11-18T11:56:55;11.45;;;10.27;;
43986;SDS011;29650;47.378;8.300;2023-11-18T11:59:35;10.80;;;9.10;;
43986;SDS011;29650;47.378;8.300;2023-11-18T12:02:21;9.95;;;8.80;;
43986;SDS011;29650;47.378;8.300;2023-11-18T12:07:19;10.00;;;8.68;;
43986;SDS011;29650;47.378;8.300;2023-11-18T12:09:49;9.90;;;8.90;;
43986;SDS011;29650;47.378;8.300;2023-11-18T12:12:19;9.95;;;8.90;;
43986;SDS011;29650;47.378;8.300;2023-11-18T12:14:51;10.15;;;9.05;;
43986;SDS011;29650;47.378;8.300;2023-11-18T12:17:21;10.57;;;9.10;;
43986;SDS011;29650;47.378;8.300;2023-11-18T12:19:49;16.45;;;11.20;;
43986;SDS011;29650;47.378;8.300;2023-11-18T12:22:23;12.07;;;9.30;;
43986;SDS011;29650;47.378;8.300;2023-11-18T12:28:00;9.10;;;7.75;;
43986;SDS011;29650;47.378;8.300;2023-11-18T12:30:43;9.57;;;6.47;;
43986;SDS011;29650;47.378;8.300;2023-11-18T12:36:39;6.97;;;6.35;;
43986;SDS011;29650;47.378;8.300;2023-11-18T12:48:30;8.63;;;7.55;;
43986;SDS011;29650;47.378;8.300;2023-11-18T12:50:59;8.18;;;6.90;;
43986;SDS011;29650;47.378;8.300;2023-11-18T12:53:26;7.47;;;6.65;;
43986;SDS011;29650;47.378;8.300;2023-11-18T12:55:55;8.82;;;6.97;;
43986;SDS011;29650;47.378;8.300;2023-11-18T12:58:27;8.07;;;7.07;;
43986;SDS011;29650;47.378;8.300;2023-11-18T13:00:58;8.73;;;7.82;;
43986;SDS011;29650;47.378;8.300;2023-11-18T13:05:54;8.20;;;7.25;;
43986;SDS011;29650;47.378;8.300;2023-11-18T13:08:22;9.18;;;7.95;;
43986;SDS011;29650;47.378;8.300;2023-11-18T13:10:49;9.63;;;7.85;;
43986;SDS011;29650;47.378;8.300;2023-11-18T13:13:17;8.57;;;7.70;;
43986;SDS011;29650;47.378;8.300;2023-11-18T13:15:46;9.60;;;7.53;;
43986;SDS011;29650;47.378;8.300;2023-11-18T13:18:15;9.32;;;8.27;;
43986;SDS011;29650;47.378;8.300;2023-11-18T13:20:53;14.70;;;10.07;;
43986;SDS011;29650;47.378;8.300;2023-11-18T13:23:24;10.85;;;9.38;;
43986;SDS011;29650;47.378;8.300;2023-11-18T13:25:53;11.75;;;10.27;;
43986;SDS011;29650;47.378;8.300;2023-11-18T13:28:22;11.48;;;9.63;;
43986;SDS011;29650;47.378;8.300;2023-11-18T13:30:51;13.47;;;9.60;;
43986;SDS011;29650;47.378;8.300;2023-11-18T13:33:18;9.03;;;8.00;;
43986;SDS011;29650;47.378;8.300;2023-11-18T13:35:46;11.15;;;8.05;;
43986;SDS011;29650;47.378;8.300;2023-11-18T13:38:14;10.30;;;8.43;;
43986;SDS011;29650;47.378;8.300;2023-11-18T13:40:44;9.52;;;8.07;;
43986;SDS011;29650;47.378;8.300;2023-11-18T13:43:11;10.75;;;7.72;;
43986;SDS011;29650;47.378;8.300;2023-11-18T13:45:40;7.63;;;6.20;;
43986;SDS011;29650;47.378;8.300;2023-11-18T13:48:09;7.32;;;6.28;;
43986;SDS011;29650;47.378;8.300;2023-11-18T13:50:40;8.98;;;6.60;;
43986;SDS011;29650;47.378;8.300;2023-11-18T13:55:35;10.95;;;7.90;;
43986;SDS011;29650;47.378;8.300;2023-11-18T13:58:05;12.15;;;7.78;;
43986;SDS011;29650;47.378;8.300;2023-11-18T14:00:32;9.00;;;6.97;;
43986;SDS011;29650;47.378;8.300;2023-11-18T14:02:59;9.15;;;6.90;;
43986;SDS011;29650;47.378;8.300;2023-11-18T14:05:32;7.38;;;6.68;;
43986;SDS011;29650;47.378;8.300;2023-11-18T14:08:00;8.02;;;6.00;;
43986;SDS011;29650;47.378;8.300;2023-11-18T14:10:33;6.63;;;5.93;;
43986;SDS011;29650;47.378;8.300;2023-11-18T14:13:03;8.07;;;7.25;;
43986;SDS011;29650;47.378;8.300;2023-11-18T14:15:37;9.75;;;7.13;;
43986;SDS011;29650;47.378;8.300;2023-11-18T14:18:06;7.63;;;6.63;;
43986;SDS011;29650;47.378;8.300;2023-11-18T14:20:35;8.90;;;7.55;;
43986;SDS011;29650;47.378;8.300;2023-11-18T14:23:03;10.27;;;7.90;;
43986;SDS011;29650;47.378;8.300;2023-11-18T14:25:30;10.98;;;7.88;;
43986;SDS011;29650;47.378;8.300;2023-11-18T14:27:57;13.00;;;9.13;;
43986;SDS011;29650;47.378;8.300;2023-11-18T14:30:24;13.23;;;9.30;;
43986;SDS011;29650;47.378;8.300;2023-11-18T14:32:51;8.32;;;6.95;;
43986;SDS011;29650;47.378;8.300;2023-11-18T14:35:18;8.68;;;6.55;;
43986;SDS011;29650;47.378;8.300;2023-11-18T14:37:47;11.70;;;7.60;;
43986;SDS011;29650;47.378;8.300;2023-11-18T14:40:15;9.77;;;7.80;;
43986;SDS011;29650;47.378;8.300;2023-11-18T14:42:42;8.15;;;6.50;;
43986;SDS011;29650;47.378;8.300;2023-11-18T14:45:10;12.77;;;7.75;;
43986;SDS011;29650;47.378;8.300;2023-11-18T14:50:06;10.10;;;5.90;;
43986;SDS011;29650;47.378;8.300;2023-11-18T14:52:42;9.52;;;6.80;;
43986;SDS011;29650;47.378;8.300;2023-11-18T14:55:10;14.75;;;8.50;;
43986;SDS011;29650;47.378;8.300;2023-11-18T14:57:38;13.20;;;9.57;;
43986;SDS011;29650;47.378;8.300;2023-11-18T15:00:07;13.88;;;9.70;;
43986;SDS011;29650;47.378;8.300;2023-11-18T15:02:40;12.23;;;9.13;;
43986;SDS011;29650;47.378;8.300;2023-11-18T15:05:07;11.60;;;8.80;;
43986;SDS011;29650;47.378;8.300;2023-11-18T15:07:34;13.70;;;10.15;;
43986;SDS011;29650;47.378;8.300;2023-11-18T15:10:01;13.73;;;10.48;;
43986;SDS011;29650;47.378;8.300;2023-11-18T15:12:30;13.27;;;9.93;;
43986;SDS011;29650;47.378;8.300;2023-11-18T15:14:59;14.82;;;9.70;;
43986;SDS011;29650;47.378;8.300;2023-11-18T15:17:28;13.07;;;9.77;;
43986;SDS011;29650;47.378;8.300;2023-11-18T15:19:54;9.80;;;8.05;;
43986;SDS011;29650;47.378;8.300;2023-11-18T15:22:21;11.32;;;8.80;;
43986;SDS011;29650;47.378;8.300;2023-11-18T15:24:49;13.63;;;8.20;;
43986;SDS011;29650;47.378;8.300;2023-11-18T15:27:16;10.27;;;6.65;;
43986;SDS011;29650;47.378;8.300;2023-11-18T15:29:46;8.38;;;6.65;;
43986;SDS011;29650;47.378;8.300;2023-11-18T15:32:16;8.07;;;5.57;;